Time;durP1;ratioP1;P1;durP2;ratioP2;P2;SDS_P1;SDS_P2;PMS_P1;PMS_P2;Temp;Humidity;BMP_temperature;BMP_pressure;BME280_temperature;BME280_humidity;BME280_pressure;Samples;Min_cycle;Max_cycle;Signal;HPM_P1;HPM_P2
2022/06/06 00:00:39;;;;;;;1999.90;999.90;;;;;;;16.54;100.00;69386.94;5057762;28;20181;-60
2022/06/06 00:03:05;;;;;;;1999.90;999.90;;;;;;;16.53;100.00;69385.63;5059498;28;20285;-60
2022/06/06 00:05:31;;;;;;;1999.90;999.90;;;;;;;16.52;100.00;69384.53;5075937;28;20206;-60
2022/06/06 00:07:58;;;;;;;1999.90;999.90;;;;;;;16.51;100.00;69383.97;5059024;28;20193;-61
2022/06/06 00:10:23;;;;;;;1999.90;999.90;;;;;;;16.51;100.00;69383.59;5059078;28;20192;-60
2022/06/06 00:12:49;;;;;;;1999.90;999.90;;;;;;;16.50;100.00;69383.19;5059151;28;20196;-54
2022/06/06 00:15:14;;;;;;;1999.90;999.90;;;;;;;16.50;100.00;69383.09;5059338;28;20192;-62
2022/06/06 00:17:40;;;;;;;1999.90;999.90;;;;;;;16.50;100.00;69383.53;5058973;28;20304;-62
2022/06/06 00:20:06;;;;;;;1999.90;999.90;;;;;;;16.51;100.00;69384.00;5058982;28;20219;-62
2022/06/06 00:22:31;;;;;;;1999.90;999.90;;;;;;;16.51;100.00;69384.44;5058662;28;20224;-62
2022/06/06 00:24:57;;;;;;;1999.90;999.90;;;;;;;16.51;100.00;69384.63;5059118;28;20212;-62
2022/06/06 00:27:22;;;;;;;1999.90;999.90;;;;;;;16.51;100.00;69384.16;5059039;28;20286;-62
2022/06/06 00:29:49;;;;;;;1999.90;999.90;;;;;;;16.51;100.00;69384.16;5058418;28;20249;-61
2022/06/06 00:35:03;;;;;;;1999.90;999.90;;;;;;;16.50;100.00;69383.69;5077009;28;20192;-53
2022/06/06 00:37:32;;;;;;;1999.90;999.90;;;;;;;16.50;100.00;69383.59;5059055;28;20193;-54
2022/06/06 00:39:58;;;;;;;1999.90;999.90;;;;;;;16.50;100.00;69383.78;5058585;28;20237;-54
2022/06/06 00:42:28;;;;;;;1999.90;999.90;;;;;;;16.50;100.00;69384.28;5075167;28;20228;-51
2022/06/06 00:45:15;;;;;;;1999.90;999.90;;;;;;;16.50;100.00;69383.94;5058524;28;20193;-54
2022/06/06 00:47:42;;;;;;;1999.90;999.90;;;;;;;16.50;100.00;69383.56;5058328;28;20196;-52
2022/06/06 00:50:15;;;;;;;1999.90;999.90;;;;;;;16.50;100.00;69383.41;5058615;28;20182;-60
2022/06/06 00:52:43;;;;;;;1999.90;999.90;;;;;;;16.49;100.00;69382.94;5076244;28;20258;-62
2022/06/06 00:55:14;;;;;;;1999.90;999.90;;;;;;;16.49;100.00;69382.22;5059108;28;20193;-62
2022/06/06 00:57:45;;;;;;;1999.90;999.90;;;;;;;16.49;100.00;69382.13;5074529;28;20196;-62
2022/06/06 01:00:16;;;;;;;1999.90;999.90;;;;;;;16.49;100.00;69382.28;5075544;28;20189;-62
2022/06/06 01:02:43;;;;;;;1999.90;999.90;;;;;;;16.48;100.00;69381.56;5075312;28;20213;-62
2022/06/06 01:05:10;;;;;;;1999.90;999.90;;;;;;;16.48;100.00;69381.91;5058390;28;20280;-62
2022/06/06 01:07:35;;;;;;;1999.90;999.90;;;;;;;16.48;100.00;69381.50;5058317;28;20189;-61
2022/06/06 01:10:01;;;;;;;1999.90;999.90;;;;;;;16.47;100.00;69380.97;5058596;28;20204;-63
2022/06/06 01:12:31;;;;;;;1999.90;999.90;;;;;;;16.46;100.00;69380.13;5056943;28;20197;-63
2022/06/06 01:15:00;;;;;;;1999.90;999.90;;;;;;;16.46;100.00;69379.47;5074852;28;20197;-63
2022/06/06 01:17:41;;;;;;;1999.90;999.90;;;;;;;16.45;100.00;69379.34;5058049;28;20263;-63
2022/06/06 01:20:25;;;;;;;1999.90;999.90;;;;;;;16.45;100.00;69379.25;5058335;28;20193;-63
2022/06/06 01:22:53;;;;;;;1999.90;999.90;;;;;;;16.45;100.00;69378.97;5058119;28;20209;-63
2022/06/06 01:25:40;;;;;;;1999.90;999.90;;;;;;;16.44;100.00;69378.84;5057829;28;20200;-65
2022/06/06 01:28:30;;;;;;;1999.90;999.90;;;;;;;16.44;100.00;69378.66;5058383;28;20195;-53
2022/06/06 01:31:01;;;;;;;1999.90;999.90;;;;;;;16.43;100.00;69377.97;5057753;28;20193;-63
2022/06/06 01:33:26;;;;;;;1999.90;999.90;;;;;;;16.42;100.00;69377.16;5057888;28;20265;-63
2022/06/06 01:35:52;;;;;;;1999.90;999.90;;;;;;;16.42;100.00;69376.06;5057951;28;20185;-63
2022/06/06 01:38:21;;;;;;;1999.90;999.90;;;;;;;16.40;100.00;69374.91;5075451;28;20243;-64
2022/06/06 01:41:27;;;;;;;1999.90;999.90;;;;;;;16.39;100.00;69373.63;5058050;28;20189;-63
2022/06/06 01:44:02;;;;;;;1999.90;999.90;;;;;;;16.38;100.00;69371.97;5016894;28;20213;-54
2022/06/06 01:46:33;;;;;;;1999.90;999.90;;;;;;;16.36;100.00;69370.00;5053439;28;20198;-62
2022/06/06 01:48:59;;;;;;;1999.90;999.90;;;;;;;16.34;100.00;69367.78;5074303;28;20193;-60
2022/06/06 01:51:28;;;;;;;1999.90;999.90;;;;;;;16.31;100.00;69364.91;5057478;28;20200;-61
2022/06/06 01:53:54;;;;;;;1999.90;999.90;;;;;;;16.29;100.00;69363.19;5058038;28;20211;-60
2022/06/06 01:56:33;;;;;;;1999.90;999.90;;;;;;;16.27;100.00;69360.81;5074163;28;20226;-60
2022/06/06 01:58:59;;;;;;;1999.90;999.90;;;;;;;16.25;100.00;69358.28;5074325;28;20196;-61
2022/06/06 02:01:25;;;;;;;1999.90;999.90;;;;;;;16.23;100.00;69355.53;5057275;28;20177;-60
2022/06/06 02:03:52;;;;;;;1999.90;999.90;;;;;;;16.20;100.00;69352.19;5057284;28;20196;-61
2022/06/06 02:06:17;;;;;;;1999.90;999.90;;;;;;;16.17;100.00;69348.88;5057264;28;20185;-57
2022/06/06 02:08:43;;;;;;;1999.90;999.90;;;;;;;16.14;100.00;69345.69;5057493;28;20195;-55
2022/06/06 02:11:10;;;;;;;1999.90;999.90;;;;;;;16.10;100.00;69341.75;5056855;28;20181;-55
2022/06/06 02:13:37;;;;;;;1999.90;999.90;;;;;;;16.07;100.00;69338.16;5057079;28;20211;-55
2022/06/06 02:16:02;;;;;;;1999.90;999.90;;;;;;;16.04;100.00;69333.91;5057559;28;20194;-52
2022/06/06 02:18:28;;;;;;;1999.90;999.90;;;;;;;16.00;100.00;69329.75;5057100;28;20250;-50
2022/06/06 02:20:54;;;;;;;1999.90;999.90;;;;;;;15.96;100.00;69325.59;5057125;28;20280;-61
2022/06/06 02:23:20;;;;;;;1999.90;999.90;;;;;;;15.92;100.00;69320.50;5056496;28;20220;-69
2022/06/06 02:25:46;;;;;;;1999.90;999.90;;;;;;;15.88;100.00;69316.34;5073555;28;20184;-69
2022/06/06 02:28:11;;;;;;;1999.90;999.90;;;;;;;15.85;100.00;69311.94;5057345;28;20227;-69
2022/06/06 02:30:37;;;;;;;1999.90;999.90;;;;;;;15.81;100.00;69308.50;5056971;28;20192;-68
2022/06/06 02:33:03;;;;;;;1999.90;999.90;;;;;;;15.78;100.00;69304.28;5057155;28;20193;-67
2022/06/06 02:35:35;;;;;;;1999.90;999.90;;;;;;;15.75;100.00;69300.66;5056581;28;20207;-69
2022/06/06 02:38:00;;;;;;;1999.90;999.90;;;;;;;15.71;100.00;69297.22;5056820;28;20203;-69
2022/06/06 02:40:28;;;;;;;1999.90;999.90;;;;;;;15.68;100.00;69293.63;5056750;28;20189;-51
2022/06/06 02:42:54;;;;;;;1999.90;999.90;;;;;;;15.65;100.00;69290.09;5073238;28;20213;-62
2022/06/06 02:45:19;;;;;;;1999.90;999.90;;;;;;;15.62;100.00;69285.97;5056675;28;20213;-62
2022/06/06 02:47:49;;;;;;;1999.90;999.90;;;;;;;15.59;100.00;69282.66;5056590;28;20199;-61
2022/06/06 02:50:17;;;;;;;1999.90;999.90;;;;;;;15.56;100.00;69279.50;5056644;28;20234;-61
2022/06/06 02:52:43;;;;;;;1999.90;999.90;;;;;;;15.53;100.00;69275.72;5056956;28;20197;-62
2022/06/06 02:55:11;;;;;;;1999.90;999.90;;;;;;;15.49;100.00;69271.84;5057022;28;20377;-62
2022/06/06 02:57:42;;;;;;;1999.90;999.90;;;;;;;15.46;100.00;69268.03;5056417;28;20269;-68
2022/06/06 03:00:11;;;;;;;1999.90;999.90;;;;;;;15.43;100.00;69265.00;5056293;28;20183;-53
2022/06/06 03:02:36;;;;;;;1999.90;999.90;;;;;;;15.40;100.00;69260.88;5072983;28;20220;-60
2022/06/06 03:05:06;;;;;;;1999.90;999.90;;;;;;;15.37;100.00;69257.72;5056420;28;20274;-59
2022/06/06 03:07:56;;;;;;;1999.90;999.90;;;;;;;15.34;100.00;69253.91;5056165;28;20237;-59
2022/06/06 03:10:33;;;;;;;1999.90;999.90;;;;;;;15.30;100.00;69250.19;5056698;28;20282;-61
2022/06/06 03:12:59;;;;;;;1999.90;999.90;;;;;;;15.26;100.00;69245.84;5056330;28;20194;-60
2022/06/06 03:21:53;;;;;;;1999.90;999.90;;;;;;;15.16;100.00;69234.72;5074003;28;20204;-71
2022/06/06 03:24:25;;;;;;;1999.90;999.90;;;;;;;15.13;100.00;69230.72;5056182;28;20212;-71
2022/06/06 03:27:25;;;;;;;1999.90;999.90;;;;;;;15.10;100.00;69227.81;5056005;28;20219;-71
2022/06/06 03:29:58;;;;;;;1999.90;999.90;;;;;;;15.08;100.00;69225.16;5056091;28;20192;-70
2022/06/06 03:32:32;;;;;;;1999.90;999.90;;;;;;;15.06;100.00;69223.09;5056000;28;20191;-72
2022/06/06 03:35:03;;;;;;;1999.90;999.90;;;;;;;15.04;100.00;69221.25;5055207;28;20228;-67
2022/06/06 03:37:40;;;;;;;1999.90;999.90;;;;;;;15.04;100.00;69220.28;5055846;28;20188;-54
2022/06/06 03:40:17;;;;;;;1999.90;999.90;;;;;;;15.03;100.00;69219.25;5072726;28;20296;-51
2022/06/06 03:43:00;;;;;;;1999.90;999.90;;;;;;;15.02;100.00;69218.81;5055952;28;20299;-55
2022/06/06 03:45:43;;;;;;;1999.90;999.90;;;;;;;15.03;100.00;69219.81;5055768;28;20216;-51
2022/06/06 03:48:20;;;;;;;1999.90;999.90;;;;;;;15.05;100.00;69222.28;5056414;28;20198;-54
2022/06/06 03:51:04;;;;;;;1999.90;999.90;;;;;;;15.07;100.00;69224.66;5055889;28;20188;-53
2022/06/06 03:53:55;;;;;;;1999.90;999.90;;;;;;;15.11;100.00;69229.06;5056011;28;20203;-60
2022/06/06 03:56:40;;;;;;;1999.90;999.90;;;;;;;15.16;100.00;69235.06;5055376;28;20222;-52
2022/06/06 03:59:07;;;;;;;1999.90;999.90;;;;;;;15.22;100.00;69242.44;5055781;28;20189;-53
2022/06/06 04:01:35;;;;;;;1999.90;999.90;;;;;;;15.31;100.00;69252.50;5055551;28;20220;-52
2022/06/06 04:04:02;;;;;;;1999.90;999.90;;;;;;;15.43;100.00;69265.63;5073562;28;20216;-54
2022/06/06 04:06:29;;;;;;;1999.90;999.90;;;;;;;15.57;100.00;69281.69;5055512;28;20185;-54
2022/06/06 04:08:55;;;;;;;1999.90;999.90;;;;;;;15.72;100.00;69299.53;5055921;28;20189;-53
2022/06/06 04:11:39;;;;;;;1999.90;999.90;;;;;;;15.89;100.00;69317.94;5055998;28;20276;-55
2022/06/06 04:14:39;;;;;;;1999.90;999.90;;;;;;;15.99;100.00;69329.66;5055436;28;20193;-54
2022/06/06 04:17:08;;;;;;;1999.90;999.90;;;;;;;16.08;100.00;69340.56;5055345;28;20281;-53
2022/06/06 04:19:51;;;;;;;1999.90;999.90;;;;;;;16.17;100.00;69349.56;5055325;28;20218;-54
2022/06/06 04:22:32;;;;;;;1999.90;999.90;;;;;;;16.24;100.00;69357.59;5054997;28;20197;-51
2022/06/06 04:25:23;;;;;;;1999.90;999.90;;;;;;;16.30;100.00;69364.84;5056013;28;20173;-49
2022/06/06 04:28:05;;;;;;;1999.90;999.90;;;;;;;16.36;100.00;69371.00;5072438;28;20189;-54
2022/06/06 04:30:36;;;;;;;1999.90;999.90;;;;;;;16.41;100.00;69377.19;5055473;28;20177;-60
2022/06/06 04:33:08;;;;;;;1999.90;999.90;;;;;;;16.45;100.00;69382.09;5056047;28;20181;-60
2022/06/06 04:35:51;;;;;;;1999.90;999.90;;;;;;;16.51;100.00;69388.38;5055448;28;20185;-60
2022/06/06 04:38:34;;;;;;;1999.90;999.90;;;;;;;16.59;100.00;69397.84;5072402;28;20177;-60
2022/06/06 04:41:06;;;;;;;1999.90;999.90;;;;;;;16.70;100.00;69411.78;5055508;28;20375;-60
2022/06/06 04:43:45;;;;;;;1999.90;999.90;;;;;;;16.86;100.00;69429.53;5055507;28;20209;-60
2022/06/06 04:46:16;;;;;;;1999.90;999.90;;;;;;;17.05;100.00;69451.63;5057346;28;20204;-59
2022/06/06 04:48:42;;;;;;;1999.90;999.90;;;;;;;17.26;100.00;69475.56;5075992;28;20174;-68
2022/06/06 04:51:08;;;;;;;1999.90;999.90;;;;;;;17.48;100.00;69500.38;5058284;28;20188;-63
2022/06/06 04:53:38;;;;;;;1999.90;999.90;;;;;;;17.70;100.00;69525.25;5059001;28;20177;-62
2022/06/06 04:56:04;;;;;;;1999.90;999.90;;;;;;;17.92;100.00;69550.00;5058317;28;20213;-62
2022/06/06 04:58:32;;;;;;;1999.90;999.90;;;;;;;18.15;100.00;69576.47;5058476;28;20254;-63
2022/06/06 05:01:00;;;;;;;1999.90;999.90;;;;;;;18.39;100.00;69604.34;5058321;28;20276;-63
2022/06/06 05:03:26;;;;;;;1999.90;999.90;;;;;;;18.62;100.00;69629.97;5058666;28;20201;-63
2022/06/06 05:06:29;;;;;;;1999.90;999.90;;;;;;;18.85;100.00;69656.94;5058209;28;20185;-62
2022/06/06 05:09:25;;;;;;;1999.90;999.90;;;;;;;19.06;100.00;69681.00;5057989;28;20185;-62
2022/06/06 05:12:06;;;;;;;1999.90;999.90;;;;;;;19.24;100.00;69701.03;5058822;28;20217;-63
2022/06/06 05:14:43;;;;;;;1999.90;999.90;;;;;;;19.38;100.00;69717.91;5057969;28;20181;-63
2022/06/06 05:17:17;;;;;;;1999.90;999.90;;;;;;;19.50;100.00;69730.72;5058253;28;20266;-63
2022/06/06 05:20:01;;;;;;;1999.90;999.90;;;;;;;19.59;100.00;69741.53;5058037;28;20310;-63
2022/06/06 05:23:04;;;;;;;1999.90;999.90;;;;;;;19.67;100.00;69750.53;5058231;28;20296;-63
2022/06/06 05:25:59;;;;;;;1999.90;999.90;;;;;;;19.72;100.00;69756.16;5058383;28;20203;-61
2022/06/06 05:29:00;;;;;;;1999.90;999.90;;;;;;;19.75;100.00;69760.25;5030285;28;20205;-72
2022/06/06 05:31:47;;;;;;;1999.90;999.90;;;;;;;19.79;100.00;69764.47;5044840;28;20191;-72
2022/06/06 05:34:37;;;;;;;1999.90;999.90;;;;;;;19.81;100.00;69766.63;5057663;28;20181;-74
2022/06/06 05:37:24;;;;;;;1999.90;999.90;;;;;;;19.83;100.00;69768.13;5058182;28;20234;-71
2022/06/06 05:39:52;;;;;;;1999.90;999.90;;;;;;;;;;5058168;28;20185;-68
2022/06/06 05:42:49;;;;;;;1999.90;999.90;;;;;;;19.80;100.00;69765.31;5057704;28;20181;-62
2022/06/06 05:45:37;;;;;;;1999.90;999.90;;;;;;;19.78;100.00;69763.38;5057822;28;20206;-59
2022/06/06 05:48:02;;;;;;;1999.90;999.90;;;;;;;;;;5058046;28;20189;-57
2022/06/06 05:50:27;;;;;;;1999.90;999.90;;;;;;;;;;5057463;28;20283;-58
2022/06/06 05:53:12;;;;;;;1999.90;999.90;;;;;;;19.85;100.00;69771.59;5057485;28;20186;-57
2022/06/06 05:56:18;;;;;;;1999.90;999.90;;;;;;;19.97;100.00;69784.94;5057460;28;20288;-58
2022/06/06 05:58:56;;;;;;;1999.90;999.90;;;;;;;20.14;100.00;69803.94;5045404;28;20205;-58
2022/06/06 06:01:49;;;;;;;1999.90;999.90;;;;;;;20.32;100.00;69824.34;5057414;28;20275;-51
2022/06/06 06:04:35;;;;;;;1999.90;999.90;;;;;;;20.48;100.00;69843.88;5075486;28;20212;-65
2022/06/06 06:07:18;;;;;;;1999.90;999.90;;;;;;;20.63;100.00;69860.56;5075094;28;20189;-65
2022/06/06 06:10:04;;;;;;;1999.90;999.90;;;;;;;20.83;100.00;69883.22;5057716;28;20173;-66
2022/06/06 06:12:43;;;;;;;1999.90;999.90;;;;;;;21.06;100.00;69909.72;5057337;28;20192;-66
2022/06/06 06:15:24;;;;;;;1999.90;999.90;;;;;;;21.31;100.00;69937.28;5057695;28;20276;-65
2022/06/06 06:17:53;;;;;;;1999.90;999.90;;;;;;;21.57;100.00;69967.28;5057363;28;20213;-65
2022/06/06 06:20:24;;;;;;;1999.90;999.90;;;;;;;21.86;100.00;70000.38;5057198;28;20185;-66
2022/06/06 06:22:55;;;;;;;1999.90;999.90;;;;;;;22.16;100.00;70035.19;5057212;28;20221;-54
2022/06/06 06:25:23;;;;;;;1999.90;999.90;;;;;;;22.43;100.00;70066.50;5057191;28;20216;-54
2022/06/06 06:27:50;;;;;;;1999.90;999.90;;;;;;;22.68;100.00;70094.03;5057424;28;20181;-51
2022/06/06 06:30:17;;;;;;;1999.90;999.90;;;;;;;22.90;100.00;70119.31;5073654;28;20217;-51
2022/06/06 06:33:19;;;;;;;1999.90;999.90;;;;;;;23.10;100.00;70143.19;5057404;28;20235;-51
2022/06/06 06:36:11;;;;;;;1999.90;999.90;;;;;;;23.35;100.00;70171.31;5074153;28;20192;-51
2022/06/06 06:38:57;;;;;;;1999.90;999.90;;;;;;;23.62;100.00;70201.81;5039162;28;20201;-66
2022/06/06 06:41:34;;;;;;;1999.90;999.90;;;;;;;23.81;100.00;70223.28;5073533;28;20264;-65
2022/06/06 06:44:08;;;;;;;1999.90;999.90;;;;;;;23.99;100.00;70243.53;5056680;28;20196;-66
2022/06/06 06:46:43;;;;;;;1999.90;999.90;;;;;;;24.13;100.00;70259.97;5073266;28;20191;-66
2022/06/06 06:49:18;;;;;;;1999.90;999.90;;;;;;;24.26;100.00;70274.53;5073349;28;20188;-65
2022/06/06 06:52:20;;;;;;;1999.90;999.90;;;;;;;24.36;100.00;70285.59;5074020;28;20188;-66
2022/06/06 06:54:55;;;;;;;1999.90;999.90;;;;;;;24.42;100.00;70292.47;5056092;28;20250;-64
2022/06/06 06:57:55;;;;;;;1999.90;999.90;;;;;;;24.57;100.00;70310.00;5057045;28;20192;-70
2022/06/06 07:00:23;;;;;;;1999.90;999.90;;;;;;;24.79;100.00;70335.63;5056839;28;20189;-65
2022/06/06 07:09:34;;;;;;;1999.90;999.90;;;;;;;25.53;86.47;70419.31;5073156;28;20220;-63
2022/06/06 07:12:18;;;;;;;1999.90;999.90;;;;;;;25.76;85.43;70445.22;5056248;28;20242;-64
2022/06/06 07:14:46;;;;;;;1999.90;999.90;;;;;;;26.00;81.64;70473.44;5056730;28;20189;-47
2022/06/06 07:17:13;;;;;;;1999.90;999.90;;;;;;;26.21;78.95;70497.47;5056057;28;20209;-59
2022/06/06 07:19:48;;;;;;;1999.90;999.90;;;;;;;26.41;77.96;70520.38;5056313;28;20255;-58
2022/06/06 07:22:16;;;;;;;1999.90;999.90;;;;;;;26.59;82.12;70540.53;5056601;28;20180;-62
2022/06/06 07:24:43;;;;;;;1999.90;999.90;;;;;;;26.76;81.82;70560.13;5072609;28;20188;-49
2022/06/06 07:27:10;;;;;;;1999.90;999.90;;;;;;;27.00;77.35;70586.72;5072658;28;20176;-57
2022/06/06 07:29:36;;;;;;;1999.90;999.90;;;;;;;27.25;72.79;70615.41;5056311;28;20181;-52
2022/06/06 07:32:26;;;;;;;1999.90;999.90;;;;;;;27.52;66.57;70645.72;5055890;28;20181;-53
2022/06/06 07:35:06;;;;;;;1999.90;999.90;;;;;;;27.65;73.34;70661.50;5055985;28;20184;-49
2022/06/06 07:37:54;;;;;;;1999.90;999.90;;;;;;;27.84;69.07;70683.56;5056021;28;20181;-63
2022/06/06 07:40:38;;;;;;;1999.90;999.90;;;;;;;28.07;65.47;70709.31;5036496;28;20246;-64
2022/06/06 07:43:22;;;;;;;1999.90;999.90;;;;;;;28.29;63.09;70734.44;5055832;28;20224;-64
2022/06/06 07:45:58;;;;;;;1999.90;999.90;;;;;;;28.57;58.25;70766.50;5072548;28;20197;-63
2022/06/06 07:48:35;;;;;;;1999.90;999.90;;;;;;;28.80;59.65;70793.00;5055956;28;20184;-65
2022/06/06 07:51:31;;;;;;;1999.90;999.90;;;;;;;29.05;57.51;70821.34;5055445;28;20249;-60
2022/06/06 07:54:55;;;;;;;1999.90;999.90;;;;;;;29.27;56.72;70847.13;5056244;28;20260;-60
2022/06/06 07:57:48;;;;;;;1999.90;999.90;;;;;;;29.50;55.45;70872.94;5037855;28;20201;-59
2022/06/06 08:00:18;;;;;;;1999.90;999.90;;;;;;;29.63;59.72;70888.47;5055335;28;20196;-58
2022/06/06 08:02:55;;;;;;;1999.90;999.90;;;;;;;29.75;57.08;70901.13;5055351;28;20205;-61
2022/06/06 08:05:49;;;;;;;1999.90;999.90;;;;;;;29.84;62.86;70911.97;5055403;28;20245;-58
2022/06/06 08:08:35;;;;;;;1999.90;999.90;;;;;;;29.92;62.78;70920.94;5055653;28;20181;-58
2022/06/06 08:11:13;;;;;;;1999.90;999.90;;;;;;;29.99;60.92;70928.53;5055663;28;20221;-61
2022/06/06 08:14:09;;;;;;;1999.90;999.90;;;;;;;30.01;63.33;70930.31;5071918;28;20203;-61
2022/06/06 08:16:49;;;;;;;1999.90;999.90;;;;;;;29.96;69.26;70924.50;5055932;28;20250;-60
2022/06/06 08:19:28;;;;;;;1999.90;999.90;;;;;;;29.92;69.23;70920.25;5055763;28;20181;-61
2022/06/06 08:21:54;;;;;;;1999.90;999.90;;;;;;;29.87;69.67;70913.06;5058133;28;20193;-57
2022/06/06 08:24:19;;;;;;;1999.90;999.90;;;;;;;29.79;71.58;70904.38;5059010;28;20212;-58
2022/06/06 08:26:48;;;;;;;1999.90;999.90;;;;;;;29.73;74.52;70897.00;5058775;28;20193;-58
2022/06/06 08:29:16;;;;;;;1999.90;999.90;;;;;;;29.71;72.14;70895.31;5058458;28;20185;-45
2022/06/06 08:31:41;;;;;;;1999.90;999.90;;;;;;;29.76;66.93;70901.41;5076061;28;20216;-59
2022/06/06 08:34:07;;;;;;;1999.90;999.90;;;;;;;29.83;65.39;70908.69;5058828;28;20196;-61
2022/06/06 08:37:22;;;;;;;1999.90;999.90;;;;;;;29.94;58.83;70922.13;5058752;28;20242;-61
2022/06/06 08:40:25;;;;;;;1999.90;999.90;;;;;;;29.98;63.79;70926.81;5028275;28;20220;-62
2022/06/06 08:43:09;;;;;;;1999.90;999.90;;;;;;;29.94;68.22;70921.06;5058517;28;20239;-62
2022/06/06 08:45:58;;;;;;;1999.90;999.90;;;;;;;29.92;69.58;70918.97;5058638;28;20196;-62
2022/06/06 08:48:30;;;;;;;1999.90;999.90;;;;;;;29.94;65.19;70922.03;5058524;28;20187;-58
2022/06/06 08:51:15;;;;;;;1999.90;999.90;;;;;;;30.00;65.00;70928.75;5058934;28;20189;-56
2022/06/06 08:53:56;;;;;;;1999.90;999.90;;;;;;;30.12;61.80;70943.06;5075553;28;20185;-56
2022/06/06 08:56:42;;;;;;;1999.90;999.90;;;;;;;30.31;51.00;70964.63;5058719;28;20189;-56
2022/06/06 08:59:39;;;;;;;1999.90;999.90;;;;;;;30.48;49.63;70983.53;5059111;28;20200;-57
2022/06/06 09:02:19;;;;;;;1999.90;999.90;;;;;;;30.56;53.98;70992.78;5058506;28;20201;-57
2022/06/06 09:05:08;;;;;;;1999.90;999.90;;;;;;;30.57;59.81;70993.44;5058263;28;20181;-58
2022/06/06 09:08:03;;;;;;;1999.90;999.90;;;;;;;30.54;66.74;70988.75;5058254;28;20169;-53
2022/06/06 09:10:48;;;;;;;1999.90;999.90;;;;;;;30.50;66.84;70984.25;5058380;28;20193;-50
2022/06/06 09:13:32;;;;;;;1999.90;999.90;;;;;;;30.44;71.02;70977.16;5058025;28;20182;-45
2022/06/06 09:16:09;;;;;;;1999.90;999.90;;;;;;;30.34;70.06;70966.66;5076077;28;20181;-49
2022/06/06 09:18:56;;;;;;;1999.90;999.90;;;;;;;30.24;73.71;70955.00;5058088;28;20181;-52
2022/06/06 09:21:53;;;;;;;1999.90;999.90;;;;;;;30.13;76.25;70941.69;5058542;28;20201;-53
2022/06/06 09:24:47;;;;;;;1999.90;999.90;;;;;;;30.01;75.32;70928.25;5058451;28;20201;-67
2022/06/06 09:27:25;;;;;;;1999.90;999.90;;;;;;;29.94;73.01;70920.19;5058257;28;20181;-51
2022/06/06 09:30:02;;;;;;;1999.90;999.90;;;;;;;30.00;64.65;70926.50;5057863;28;20235;-49
2022/06/06 09:33:00;;;;;;;1999.90;999.90;;;;;;;30.13;58.70;70942.09;5057301;28;20203;-48
2022/06/06 09:35:40;;;;;;;1999.90;999.90;;;;;;;30.35;53.57;70966.78;5057979;28;20207;-49
2022/06/06 09:38:12;;;;;;;1999.90;999.90;;;;;;;30.61;44.80;70996.59;5058123;28;20189;-50
2022/06/06 09:40:57;;;;;;;1999.90;999.90;;;;;;;30.84;44.05;71023.34;5075364;28;20264;-49
2022/06/06 09:43:55;;;;;;;1999.90;999.90;;;;;;;31.02;44.94;71043.13;5057955;28;20295;-62
2022/06/06 09:46:39;;;;;;;1999.90;999.90;;;;;;;31.15;49.59;71057.34;5057511;28;20192;-64
2022/06/06 09:49:27;;;;;;;1999.90;999.90;;;;;;;31.26;47.43;71069.97;5058031;28;20189;-64
2022/06/06 09:52:19;;;;;;;1999.90;999.90;;;;;;;31.38;48.15;71083.44;5057313;28;20185;-64
2022/06/06 10:01:33;;;;;;;1999.90;999.90;;;;;;;31.96;40.88;71149.56;5033653;28;20225;-64
2022/06/06 10:04:35;;;;;;;1999.90;999.90;;;;;;;32.18;40.51;71174.59;5056764;28;20213;-53
2022/06/06 10:07:19;;;;;;;1999.90;999.90;;;;;;;32.33;40.97;71191.03;5057972;28;20196;-53
2022/06/06 10:10:12;;;;;;;1999.90;999.90;;;;;;;32.52;40.03;71213.22;5057347;28;20196;-49
2022/06/06 10:13:15;;;;;;;1999.90;999.90;;;;;;;32.72;42.37;71235.34;5057142;28;20185;-50
2022/06/06 10:16:02;;;;;;;1999.90;999.90;;;;;;;32.94;37.67;71259.84;5056867;28;20279;-50
2022/06/06 10:18:37;;;;;;;1999.90;999.90;;;;;;;33.08;39.84;71275.63;5056837;28;20293;-57
2022/06/06 10:21:32;;;;;;;1999.90;999.90;;;;;;;33.16;39.54;71285.38;5057074;28;20192;-63
2022/06/06 10:24:16;;;;;;;1999.90;999.90;;;;;;;33.24;40.91;71294.38;5057173;28;20209;-64
2022/06/06 10:26:57;;;;;;;1999.90;999.90;;;;;;;33.32;41.22;71304.03;5057569;28;20196;-65
2022/06/06 10:30:10;;;;;;;1999.90;999.90;;;;;;;33.45;40.40;71318.75;5057495;28;20184;-64
2022/06/06 10:32:39;;;;;;;1999.90;999.90;;;;;;;33.59;39.32;71334.06;5074759;28;20217;-63
2022/06/06 10:35:29;;;;;;;1999.90;999.90;;;;;;;33.75;38.48;71351.81;5073597;28;20189;-63
2022/06/06 10:38:32;;;;;;;1999.90;999.90;;;;;;;33.78;39.77;71355.69;5057394;28;20197;-62
2022/06/06 10:41:21;;;;;;;1999.90;999.90;;;;;;;33.83;42.91;71360.47;5056603;28;20195;-57
2022/06/06 10:44:18;;;;;;;1999.90;999.90;;;;;;;33.95;39.26;71373.72;5074472;28;20211;-58
2022/06/06 10:46:51;;;;;;;1999.90;999.90;;;;;;;34.06;38.00;71386.47;5034591;28;20193;-58
2022/06/06 10:49:25;;;;;;;1999.90;999.90;;;;;;;34.14;39.91;71395.88;5056736;28;20192;-60
2022/06/06 10:51:54;;;;;;;1999.90;999.90;;;;;;;34.23;38.85;71406.13;5056766;28;20195;-58
2022/06/06 10:54:34;;;;;;;1999.90;999.90;;;;;;;34.32;39.47;71415.69;5056468;28;20185;-57
2022/06/06 10:57:29;;;;;;;1999.90;999.90;;;;;;;34.37;38.24;71421.44;5056645;28;20189;-60
2022/06/06 11:00:20;;;;;;;1999.90;999.90;;;;;;;34.42;39.88;71426.88;5056383;28;20252;-55
2022/06/06 11:03:27;;;;;;;1999.90;999.90;;;;;;;34.39;42.22;71423.16;5056368;28;20209;-53
2022/06/06 11:06:09;;;;;;;1999.90;999.90;;;;;;;34.30;44.39;71413.66;5056396;28;20238;-54
2022/06/06 11:09:16;;;;;;;1999.90;999.90;;;;;;;34.16;47.04;71397.53;5056806;28;20180;-56
2022/06/06 11:12:03;;;;;;;1999.90;999.90;;;;;;;34.13;43.81;71393.59;5015962;28;20212;-51
2022/06/06 11:14:35;;;;;;;1999.90;999.90;;;;;;;34.13;42.17;71394.34;5016123;28;20182;-59
2022/06/06 11:17:28;;;;;;;1999.90;999.90;;;;;;;34.18;40.52;71399.63;5042764;28;20235;-61
2022/06/06 11:20:21;;;;;;;1999.90;999.90;;;;;;;34.21;42.31;71402.34;5056389;28;20223;-61
2022/06/06 11:22:52;;;;;;;1999.90;999.90;;;;;;;34.15;44.19;71395.25;5056667;28;20208;-61
2022/06/06 11:25:20;;;;;;;1999.90;999.90;;;;;;;34.03;46.83;71381.19;5056214;28;20268;-61
2022/06/06 11:28:04;;;;;;;1999.90;999.90;;;;;;;33.90;49.97;71365.81;5055878;28;20280;-64
2022/06/06 11:31:00;;;;;;;1999.90;999.90;;;;;;;33.74;53.99;71348.00;5055968;28;20241;-65
2022/06/06 11:33:51;;;;;;;1999.90;999.90;;;;;;;33.60;53.13;71330.84;5056371;28;20191;-48
2022/06/06 11:36:22;;;;;;;1999.90;999.90;;;;;;;33.54;49.00;71324.59;5073536;28;20235;-53
2022/06/06 11:39:06;;;;;;;1999.90;999.90;;;;;;;33.55;43.48;71324.94;5055696;28;20255;-54
2022/06/06 11:41:53;;;;;;;1999.90;999.90;;;;;;;33.54;43.92;71323.78;5055581;28;20279;-54
2022/06/06 11:45:09;;;;;;;1999.90;999.90;;;;;;;33.50;44.64;71318.84;5056141;28;20204;-55
2022/06/06 11:47:58;;;;;;;1999.90;999.90;;;;;;;33.40;45.31;71306.94;5038743;28;20233;-54
2022/06/06 11:50:27;;;;;;;1999.90;999.90;;;;;;;33.28;48.72;71292.53;5056169;28;20272;-64
2022/06/06 11:53:11;;;;;;;1999.90;999.90;;;;;;;33.12;53.29;71274.16;5073291;28;20189;-54
2022/06/06 11:56:00;;;;;;;1999.90;999.90;;;;;;;32.94;56.99;71253.34;5056248;28;20181;-56
2022/06/06 11:59:00;;;;;;;1999.90;999.90;;;;;;;32.74;57.98;71230.50;5059608;28;20193;-52
2022/06/06 12:01:28;;;;;;;1999.90;999.90;;;;;;;32.55;60.88;71208.88;5059178;28;20306;-51
2022/06/06 12:04:17;;;;;;;1999.90;999.90;;;;;;;32.35;63.79;71186.19;5076741;28;20203;-54